MOL Gateway — CQHN — position and weather

sailwx.info

Track history (hours):
 
Tides and Currents Weather Stations Pressure Air Temp Water Temp Dewpoint Dewpoint Depression Visibility Wind Speed Wind Dir Waves Ship Positions

MOL Gateway

Last reported at 2017-Sep-21 17:36 UTC. Time now 2017-Sep-22 00:52 UTC.
Position N 22°19' E 114°07'.

Length 275 m; draft 11.6 m.

Type: Ship (hazmat cat A). MMSI: 255805589.

Date/timePositionNaut miles runAvg speedWind from/ knotsBaromVisibWave heightAir tempDewpointWater temp
2017-Sep-21 17:36N 22°19' E 114°07'  
2017-Sep-18 21:14N 01°15' E 104°09'619.3
2017-Sep-18 20:56N 01°15' E 104°03'817.9
2017-Sep-18 20:28N 01°13' E 103°55'612.1
2017-Sep-18 20:00N 01°12' E 103°49'4 8.5
2017-Sep-18 19:30N 01°15' E 103°46'1 2.2
2017-Sep-18 19:00N 01°16' E 103°46'0 0.0
2017-Sep-18 18:30N 01°16' E 103°46'0 0.0
2017-Sep-18 17:57N 01°16' E 103°46'0 0.0
2017-Sep-18 17:30N 01°16' E 103°46'0 0.0
2017-Sep-18 17:00N 01°16' E 103°46'0 0.0
2017-Sep-18 16:29N 01°16' E 103°46'0 0.0
2017-Sep-18 15:58N 01°16' E 103°46'0 0.0
2017-Sep-18 15:30N 01°16' E 103°46'0 0.0
2017-Sep-18 15:00N 01°16' E 103°46'0 0.0
2017-Sep-18 14:26N 01°16' E 103°46'0 0.0
2017-Sep-18 13:57N 01°16' E 103°46'0 0.0
2017-Sep-18 13:28N 01°16' E 103°46'0 0.0
2017-Sep-18 12:59N 01°16' E 103°46'0 0.0
2017-Sep-18 12:28N 01°16' E 103°46'0 0.0
2017-Sep-18 12:00N 01°16' E 103°46'0 0.0
2017-Sep-18 11:28N 01°16' E 103°46'0 0.0
2017-Sep-18 11:00N 01°16' E 103°46'0 0.0
2017-Sep-18 10:28N 01°16' E 103°46'0 0.0
2017-Sep-18 10:00N 01°16' E 103°46'0 0.0
2017-Sep-18 09:28N 01°16' E 103°46'0 0.0
2017-Sep-18 09:00N 01°16' E 103°46'0 0.0
2017-Sep-18 08:27N 01°16' E 103°46'0 0.0
2017-Sep-18 08:00N 01°16' E 103°46'0 0.0
2017-Sep-18 07:27N 01°16' E 103°46'0 0.0
2017-Sep-18 07:01N 01°16' E 103°46'0 0.0
2017-Sep-18 06:31N 01°16' E 103°46'0 0.0
2017-Sep-18 05:59N 01°16' E 103°46'0 0.0
2017-Sep-18 05:29N 01°16' E 103°46'0 0.0
2017-Sep-18 04:58N 01°16' E 103°46'0 0.0
2017-Sep-18 04:29N 01°16' E 103°46'1 1.6
2017-Sep-18 04:00N 01°16' E 103°46'4 8.7
2017-Sep-18 03:31N 01°14' E 103°42'612.0
2017-Sep-18 03:00N 01°12' E 103°36'4 7.8
2017-Sep-18 02:30N 01°11' E 103°33'5 9.7
2017-Sep-18 02:00N 01°10' E 103°28'816.0
2017-Sep-18 01:30N 01°15' E 103°21'9 0.2
2017-Sep-16 08:01N 01°21' E 103°15'816.7
2017-Sep-16 07:31N 01°16' E 103°22'917.9
2017-Sep-16 07:00N 01°14' E 103°31'816.3
2017-Sep-16 06:30N 01°12' E 103°39'714.3
2017-Sep-16 06:01N 01°16' E 103°44'2 3.2
2017-Sep-16 05:28N 01°17' E 103°46'0 0.0
2017-Sep-16 05:00N 01°17' E 103°46'0 0.0
2017-Sep-16 04:30N 01°17' E 103°46'0 0.0
2017-Sep-16 03:55N 01°17' E 103°46'0 0.0
2017-Sep-16 03:30N 01°17' E 103°46'0 0.0
2017-Sep-16 02:53N 01°17' E 103°46'0 0.0
2017-Sep-16 02:30N 01°17' E 103°46'0 0.0
2017-Sep-16 01:58N 01°17' E 103°46'0 0.0
2017-Sep-16 01:28N 01°17' E 103°46'0 0.0
2017-Sep-16 00:58N 01°17' E 103°46'0 0.0
2017-Sep-16 00:30N 01°17' E 103°46'0 0.0
2017-Sep-15 23:59N 01°17' E 103°46'0 0.0
2017-Sep-15 23:29N 01°17' E 103°46'0 0.0
2017-Sep-15 22:58N 01°17' E 103°46'0 0.0
2017-Sep-15 22:30N 01°17' E 103°46'0 0.0
2017-Sep-15 22:00N 01°17' E 103°46'0 0.0
2017-Sep-15 21:25N 01°17' E 103°46'0 0.0
2017-Sep-15 20:59N 01°17' E 103°46'0 0.0
2017-Sep-15 20:26N 01°17' E 103°46'0 0.0
2017-Sep-15 19:58N 01°17' E 103°46'0 0.0
2017-Sep-15 19:27N 01°17' E 103°46'0 0.0
2017-Sep-15 19:00N 01°17' E 103°46'0 0.0
2017-Sep-15 18:28N 01°17' E 103°46'0 0.0
2017-Sep-15 18:01N 01°17' E 103°46'0 0.0
2017-Sep-15 17:27N 01°17' E 103°46'0 0.0
2017-Sep-15 17:01N 01°17' E 103°46'0 0.0
2017-Sep-15 16:30N 01°17' E 103°46'0 0.0
2017-Sep-15 15:58N 01°17' E 103°46'0 0.0
2017-Sep-15 15:29N 01°17' E 103°46'0 0.0
2017-Sep-15 14:59N 01°17' E 103°46'0 0.2
2017-Sep-15 14:30N 01°17' E 103°46'1 1.4
2017-Sep-15 14:01N 01°17' E 103°45'2 4.6
2017-Sep-15 13:31N 01°15' E 103°46'510.0
2017-Sep-15 13:01N 01°12' E 103°50'4 8.0
2017-Sep-15 12:30N 01°14' E 103°54'3 6.5
2017-Sep-15 12:00N 01°15' E 103°57'711.6
2017-Sep-15 11:25N 01°16' E 104°04'  
2017-Sep-11 20:46N 22°20' E 114°07'1 3.1
2017-Sep-11 20:30N 22°19' E 114°07'  
Track history (hours):
 
Tides and Currents Weather Stations Pressure Air Temp Water Temp Dewpoint Dewpoint Depression Visibility Wind Speed Wind Dir Waves Ship Positions

MOL Gateway

Last reported at 2017-Sep-21 17:36 UTC. Time now 2017-Sep-22 00:52 UTC.
Position N 22°19' E 114°07'.

Length 275 m; draft 11.6 m.

Type: Ship (hazmat cat A). MMSI: 255805589.

Date/timePositionNaut miles runAvg speedWind from/ knotsBaromVisibWave heightAir tempDewpointWater temp
2017-Sep-21 17:36N 22°19' E 114°07'  
2017-Sep-18 21:14N 01°15' E 104°09'619.3
2017-Sep-18 20:56N 01°15' E 104°03'817.9
2017-Sep-18 20:28N 01°13' E 103°55'612.1
2017-Sep-18 20:00N 01°12' E 103°49'4 8.5
2017-Sep-18 19:30N 01°15' E 103°46'1 2.2
2017-Sep-18 19:00N 01°16' E 103°46'0 0.0
2017-Sep-18 18:30N 01°16' E 103°46'0 0.0
2017-Sep-18 17:57N 01°16' E 103°46'0 0.0
2017-Sep-18 17:30N 01°16' E 103°46'0 0.0
2017-Sep-18 17:00N 01°16' E 103°46'0 0.0
2017-Sep-18 16:29N 01°16' E 103°46'0 0.0
2017-Sep-18 15:58N 01°16' E 103°46'0 0.0
2017-Sep-18 15:30N 01°16' E 103°46'0 0.0
2017-Sep-18 15:00N 01°16' E 103°46'0 0.0
2017-Sep-18 14:26N 01°16' E 103°46'0 0.0
2017-Sep-18 13:57N 01°16' E 103°46'0 0.0
2017-Sep-18 13:28N 01°16' E 103°46'0 0.0
2017-Sep-18 12:59N 01°16' E 103°46'0 0.0
2017-Sep-18 12:28N 01°16' E 103°46'0 0.0
2017-Sep-18 12:00N 01°16' E 103°46'0 0.0
2017-Sep-18 11:28N 01°16' E 103°46'0 0.0
2017-Sep-18 11:00N 01°16' E 103°46'0 0.0
2017-Sep-18 10:28N 01°16' E 103°46'0 0.0
2017-Sep-18 10:00N 01°16' E 103°46'0 0.0
2017-Sep-18 09:28N 01°16' E 103°46'0 0.0
2017-Sep-18 09:00N 01°16' E 103°46'0 0.0
2017-Sep-18 08:27N 01°16' E 103°46'0 0.0
2017-Sep-18 08:00N 01°16' E 103°46'0 0.0
2017-Sep-18 07:27N 01°16' E 103°46'0 0.0
2017-Sep-18 07:01N 01°16' E 103°46'0 0.0
2017-Sep-18 06:31N 01°16' E 103°46'0 0.0
2017-Sep-18 05:59N 01°16' E 103°46'0 0.0
2017-Sep-18 05:29N 01°16' E 103°46'0 0.0
2017-Sep-18 04:58N 01°16' E 103°46'0 0.0
2017-Sep-18 04:29N 01°16' E 103°46'1 1.6
2017-Sep-18 04:00N 01°16' E 103°46'4 8.7
2017-Sep-18 03:31N 01°14' E 103°42'612.0
2017-Sep-18 03:00N 01°12' E 103°36'4 7.8
2017-Sep-18 02:30N 01°11' E 103°33'5 9.7
2017-Sep-18 02:00N 01°10' E 103°28'816.0
2017-Sep-18 01:30N 01°15' E 103°21'9 0.2
2017-Sep-16 08:01N 01°21' E 103°15'816.7
2017-Sep-16 07:31N 01°16' E 103°22'917.9
2017-Sep-16 07:00N 01°14' E 103°31'816.3
2017-Sep-16 06:30N 01°12' E 103°39'714.3
2017-Sep-16 06:01N 01°16' E 103°44'2 3.2
2017-Sep-16 05:28N 01°17' E 103°46'0 0.0
2017-Sep-16 05:00N 01°17' E 103°46'0 0.0
2017-Sep-16 04:30N 01°17' E 103°46'0 0.0
2017-Sep-16 03:55N 01°17' E 103°46'0 0.0
2017-Sep-16 03:30N 01°17' E 103°46'0 0.0
2017-Sep-16 02:53N 01°17' E 103°46'0 0.0
2017-Sep-16 02:30N 01°17' E 103°46'0 0.0
2017-Sep-16 01:58N 01°17' E 103°46'0 0.0
2017-Sep-16 01:28N 01°17' E 103°46'0 0.0
2017-Sep-16 00:58N 01°17' E 103°46'0 0.0
2017-Sep-16 00:30N 01°17' E 103°46'0 0.0
2017-Sep-15 23:59N 01°17' E 103°46'0 0.0
2017-Sep-15 23:29N 01°17' E 103°46'0 0.0
2017-Sep-15 22:58N 01°17' E 103°46'0 0.0
2017-Sep-15 22:30N 01°17' E 103°46'0 0.0
2017-Sep-15 22:00N 01°17' E 103°46'0 0.0
2017-Sep-15 21:25N 01°17' E 103°46'0 0.0
2017-Sep-15 20:59N 01°17' E 103°46'0 0.0
2017-Sep-15 20:26N 01°17' E 103°46'0 0.0
2017-Sep-15 19:58N 01°17' E 103°46'0 0.0
2017-Sep-15 19:27N 01°17' E 103°46'0 0.0
2017-Sep-15 19:00N 01°17' E 103°46'0 0.0
2017-Sep-15 18:28N 01°17' E 103°46'0 0.0
2017-Sep-15 18:01N 01°17' E 103°46'0 0.0
2017-Sep-15 17:27N 01°17' E 103°46'0 0.0
2017-Sep-15 17:01N 01°17' E 103°46'0 0.0
2017-Sep-15 16:30N 01°17' E 103°46'0 0.0
2017-Sep-15 15:58N 01°17' E 103°46'0 0.0
2017-Sep-15 15:29N 01°17' E 103°46'0 0.0
2017-Sep-15 14:59N 01°17' E 103°46'0 0.2
2017-Sep-15 14:30N 01°17' E 103°46'1 1.4
2017-Sep-15 14:01N 01°17' E 103°45'2 4.6
2017-Sep-15 13:31N 01°15' E 103°46'510.0
2017-Sep-15 13:01N 01°12' E 103°50'4 8.0
2017-Sep-15 12:30N 01°14' E 103°54'3 6.5
2017-Sep-15 12:00N 01°15' E 103°57'711.6
2017-Sep-15 11:25N 01°16' E 104°04'  
2017-Sep-11 20:46N 22°20' E 114°07'1 3.1
2017-Sep-11 20:30N 22°19' E 114°07'  

Dump ship's entire track history